createdAt,value
2018-06-25T05:02:02.048Z,14.51
2018-06-25T05:07:07.500Z,14.51
2018-06-25T05:12:10.827Z,14.63
2018-06-25T05:17:14.944Z,14.99
2018-06-25T05:22:18.274Z,15.43
2018-06-25T05:27:22.547Z,15.68
2018-06-25T05:32:25.891Z,15.73
2018-06-25T05:37:29.229Z,15.74
2018-06-25T05:42:33.334Z,15.47
2018-06-25T05:47:36.675Z,15.20
2018-06-25T05:52:39.998Z,15.34
2018-06-25T05:57:43.322Z,15.46
2018-06-25T06:02:46.654Z,15.21
2018-06-25T06:07:49.992Z,15.36
2018-06-25T06:12:53.318Z,15.37
2018-06-25T06:17:56.651Z,15.66
2018-06-25T06:23:00.746Z,15.51
2018-06-25T06:28:04.084Z,15.14
2018-06-25T06:33:07.415Z,15.24
2018-06-25T06:38:11.507Z,15.41
2018-06-25T06:43:14.841Z,15.51
2018-06-25T06:48:18.181Z,15.74
2018-06-25T06:53:21.523Z,15.92
2018-06-25T06:58:24.874Z,15.91
2018-06-25T07:03:28.970Z,15.81
2018-06-25T07:08:32.295Z,16.29
2018-06-25T07:13:35.634Z,16.19
2018-06-25T07:18:38.979Z,16.43
2018-06-25T07:23:42.302Z,16.75
2018-06-25T07:28:45.646Z,16.99
2018-06-25T07:33:48.978Z,17.20
2018-06-25T07:38:52.306Z,16.69
2018-06-25T07:43:56.423Z,16.58
2018-06-25T07:48:59.792Z,16.49
2018-06-25T07:54:03.319Z,16.70
2018-06-25T07:59:06.831Z,16.44
2018-06-25T08:04:10.247Z,16.68
2018-06-25T08:09:13.573Z,16.63
2018-06-25T08:14:16.910Z,16.74
2018-06-25T08:19:20.503Z,16.87
2018-06-25T08:24:24.119Z,16.83
2018-06-25T08:29:27.722Z,16.93
2018-06-25T08:34:31.384Z,16.97
2018-06-25T08:39:34.767Z,17.25
2018-06-25T08:44:38.122Z,16.92
2018-06-25T08:49:42.230Z,17.15
2018-06-25T08:54:45.739Z,17.20
2018-06-25T08:59:49.087Z,16.99
2018-06-25T09:04:53.189Z,17.30
2018-06-25T09:09:56.772Z,17.42
2018-06-25T09:15:00.038Z,17.31
2018-06-25T09:20:04.135Z,17.54
2018-06-25T09:25:07.471Z,17.48
2018-06-25T09:30:10.822Z,17.77
2018-06-25T09:35:14.165Z,18.04
2018-06-25T09:40:17.503Z,17.66
2018-06-25T09:45:20.827Z,17.75
2018-06-25T09:50:24.158Z,18.04
2018-06-25T09:55:28.255Z,17.95
2018-06-25T10:00:31.583Z,17.87
2018-06-25T10:05:34.919Z,17.90
2018-06-25T10:10:39.222Z,17.83
2018-06-25T10:15:42.521Z,18.36
2018-06-25T10:20:45.852Z,18.38
2018-06-25T10:25:49.180Z,18.66
2018-06-25T10:30:53.278Z,19.02
2018-06-25T10:35:56.606Z,19.28
2018-06-25T10:40:59.951Z,19.42
2018-06-25T10:46:03.278Z,19.36
2018-06-25T10:51:06.615Z,19.38
2018-06-25T10:56:09.943Z,19.35
2018-06-25T11:01:13.304Z,19.11
2018-06-25T11:06:17.382Z,19.20
2018-06-25T11:11:20.711Z,18.87
2018-06-25T11:16:24.049Z,19.13
2018-06-25T11:21:28.146Z,19.53
2018-06-25T11:26:31.480Z,19.77
2018-06-25T11:31:34.808Z,20.05
2018-06-25T11:36:38.898Z,20.25
2018-06-25T11:41:42.283Z,20.25
2018-06-25T11:46:45.579Z,20.36
2018-06-25T11:51:48.931Z,20.55
2018-06-25T11:56:52.241Z,20.19
2018-06-25T12:01:55.578Z,20.10
2018-06-25T12:06:59.771Z,20.39
2018-06-25T12:12:03.112Z,20.53
2018-06-25T12:17:06.438Z,20.03
2018-06-25T12:22:09.777Z,19.59
2018-06-25T12:27:13.117Z,19.53
2018-06-25T12:32:16.451Z,19.28
2018-06-25T12:37:19.783Z,19.28
2018-06-25T12:42:23.126Z,19.46
2018-06-25T12:47:26.456Z,19.48
2018-06-25T12:52:29.778Z,19.19
2018-06-25T12:57:33.107Z,19.69
2018-06-25T13:02:36.444Z,19.68
2018-06-25T13:07:39.794Z,19.80
2018-06-25T13:12:43.126Z,19.49
2018-06-25T13:17:46.455Z,20.05
2018-06-25T13:22:49.783Z,20.20
2018-06-25T13:27:53.109Z,20.19
2018-06-25T13:32:56.452Z,20.98
2018-06-25T13:37:59.778Z,21.25
2018-06-25T13:43:03.118Z,22.42
2018-06-25T13:48:06.446Z,23.68
2018-06-25T13:53:09.777Z,23.66
2018-06-25T13:58:13.106Z,23.10
2018-06-25T14:03:17.208Z,23.29
2018-06-25T14:08:20.544Z,23.00
2018-06-25T14:13:24.642Z,22.88
2018-06-25T14:18:27.971Z,21.88
2018-06-25T14:23:31.304Z,21.34
2018-06-25T14:28:35.394Z,21.06
2018-06-25T14:33:38.759Z,20.72
2018-06-25T14:38:42.847Z,20.66
2018-06-25T14:43:46.175Z,21.06
2018-06-25T14:48:49.513Z,21.51
2018-06-25T14:53:52.846Z,22.00
2018-06-25T14:58:56.173Z,21.37
2018-06-25T15:03:59.495Z,21.36
2018-06-25T15:09:02.822Z,21.34
2018-06-25T15:14:06.158Z,22.14
2018-06-25T15:19:10.255Z,22.17
2018-06-25T15:24:13.585Z,23.98
2018-06-25T15:29:16.928Z,25.34
2018-06-25T15:34:20.270Z,25.74
2018-06-25T15:39:23.599Z,23.58
2018-06-25T15:44:26.943Z,23.23
2018-06-25T15:49:30.270Z,22.63
2018-06-25T15:54:33.605Z,22.69
2018-06-25T15:59:36.933Z,22.81
2018-06-25T16:04:40.262Z,23.41
2018-06-25T16:09:43.598Z,23.27
2018-06-25T16:14:46.933Z,22.83
2018-06-25T16:19:51.022Z,22.56
2018-06-25T16:24:54.346Z,22.27
2018-06-25T16:29:57.671Z,22.40
2018-06-25T16:35:01.015Z,22.59
2018-06-25T16:40:04.368Z,22.48
2018-06-25T16:45:07.716Z,22.67
2018-06-25T16:50:37.728Z,22.80
2018-06-25T16:55:41.053Z,22.87
2018-06-25T17:00:57.282Z,22.98
2018-06-25T17:06:01.387Z,23.54
2018-06-25T17:11:09.912Z,23.93
2018-06-25T17:16:13.246Z,25.53
2018-06-25T17:21:16.981Z,25.97
2018-06-25T17:26:20.610Z,25.70
2018-06-25T17:31:24.286Z,24.35
2018-06-25T17:36:28.557Z,23.82
2018-06-25T17:41:31.902Z,24.44
2018-06-25T17:46:35.235Z,23.93
2018-06-25T17:51:38.563Z,23.96
2018-06-25T17:56:41.895Z,23.43
2018-06-25T18:01:45.232Z,23.39
2018-06-25T18:06:48.563Z,23.17
2018-06-25T18:11:51.902Z,23.13
2018-06-25T18:16:55.233Z,23.05
2018-06-25T18:21:58.577Z,22.95
2018-06-25T18:27:02.683Z,22.59
2018-06-25T18:32:06.279Z,22.49
2018-06-25T18:37:09.609Z,22.56
2018-06-25T18:42:12.938Z,22.68
2018-06-25T18:47:17.057Z,22.49
2018-06-25T18:52:20.412Z,22.22
2018-06-25T18:57:23.750Z,21.94
2018-06-25T19:02:27.099Z,21.80
2018-06-25T19:07:30.446Z,21.76
2018-06-25T19:12:34.100Z,21.81
2018-06-25T19:17:37.619Z,21.69
2018-06-25T19:22:40.975Z,21.61
2018-06-25T19:27:44.758Z,21.60
2018-06-25T19:32:48.090Z,21.56
2018-06-25T19:37:51.471Z,21.50
2018-06-25T19:42:55.107Z,21.39
2018-06-25T19:47:58.546Z,21.33
2018-06-25T19:53:02.235Z,21.27
2018-06-25T19:58:05.674Z,21.19
2018-06-25T20:03:09.056Z,21.11
2018-06-25T20:08:12.394Z,21.03
2018-06-25T20:13:15.755Z,20.94
2018-06-25T20:18:19.079Z,20.91
2018-06-25T20:23:22.403Z,20.85
2018-06-25T20:28:25.927Z,20.80
2018-06-25T20:33:29.284Z,20.74
2018-06-25T20:38:43.623Z,20.68
2018-06-25T20:43:46.950Z,20.63
2018-06-25T20:48:52.194Z,20.53
2018-06-25T20:53:55.609Z,20.44
2018-06-25T20:58:58.936Z,20.25
2018-06-25T21:04:02.267Z,20.09
2018-06-25T21:09:06.359Z,19.96
2018-06-25T21:14:09.681Z,19.95
2018-06-25T21:19:17.082Z,19.97
2018-06-25T21:24:20.403Z,19.93
2018-06-25T21:29:23.732Z,19.87
2018-06-25T21:34:27.062Z,19.80
2018-06-25T21:45:06.340Z,19.65
2018-06-25T21:50:20.658Z,19.58
2018-06-25T21:55:23.985Z,19.55
2018-06-25T22:00:54.747Z,19.52
2018-06-25T22:05:58.082Z,19.49
2018-06-25T22:11:01.423Z,19.43
2018-06-25T22:16:05.519Z,19.32
2018-06-25T22:21:08.843Z,19.11
2018-06-25T22:26:12.173Z,19.02
